Time;durP1;ratioP1;P1;durP2;ratioP2;P2;SDS_P1;SDS_P2;PMS_P1;PMS_P2;Temp;Humidity;BMP_temperature;BMP_pressure;BME280_temperature;BME280_humidity;BME280_pressure;Samples;Min_cycle;Max_cycle;Signal;HPM_P1;HPM_P2
2022/01/10 13:31:38;;;;;;;9.65;5.78;;;9.40;99.90;;;;;;5479014;23;20127;-73
2022/01/10 13:34:05;;;;;;;11.02;5.93;;;9.40;99.90;;;;;;4935956;29;20036;-80
2022/01/10 13:36:43;;;;;;;10.07;6.18;;;9.50;99.90;;;;;;4935372;29;20028;-81
2022/01/10 13:39:19;;;;;;;8.30;4.97;;;9.40;99.90;;;;;;4934639;29;20035;-79
2022/01/10 13:41:59;;;;;;;12.35;6.35;;;9.40;99.90;;;;;;4935592;29;20388;-80
2022/01/10 13:44:26;;;;;;;13.80;6.57;;;9.40;99.90;;;;;;4929923;29;20024;-81
2022/01/10 13:47:06;;;;;;;10.73;5.53;;;9.40;99.90;;;;;;4925251;29;20024;-79
2022/01/10 13:49:33;;;;;;;13.80;5.97;;;9.40;99.90;;;;;;4921152;29;20032;-79
2022/01/10 13:52:13;;;;;;;10.18;5.40;;;9.40;99.90;;;;;;4924198;29;20516;-80
2022/01/10 13:54:39;;;;;;;9.70;5.60;;;9.30;99.90;;;;;;4927760;29;20481;-82
2022/01/10 13:57:21;;;;;;;10.85;5.80;;;9.20;99.90;;;;;;4928428;29;20040;-82
2022/01/10 13:59:47;;;;;;;11.03;7.50;;;9.20;99.90;;;;;;4922787;29;20607;-78
2022/01/10 14:02:16;;;;;;;10.48;6.30;;;9.10;99.90;;;;;;4916079;29;20362;-80
2022/01/10 14:04:44;;;;;;;12.68;7.65;;;9.10;99.90;;;;;;4891962;29;20397;-78
2022/01/10 14:07:14;;;;;;;8.60;5.60;;;9.10;99.90;;;;;;4900370;29;20034;-79
2022/01/10 14:09:40;;;;;;;10.55;5.32;;;9.10;99.90;;;;;;4925091;29;20028;-80
2022/01/10 14:12:07;;;;;;;12.60;5.03;;;9.10;99.90;;;;;;4924486;29;20035;-79
2022/01/10 14:14:33;;;;;;;12.25;5.60;;;9.20;99.90;;;;;;4931123;29;20063;-78
2022/01/10 14:16:59;;;;;;;15.45;7.72;;;9.20;99.90;;;;;;4934220;29;20472;-75
2022/01/10 14:19:25;;;;;;;14.20;7.47;;;9.20;99.90;;;;;;4926121;29;20042;-75
2022/01/10 14:21:52;;;;;;;13.20;5.75;;;9.20;99.90;;;;;;4930668;29;20070;-76
2022/01/10 14:24:22;;;;;;;11.60;5.20;;;9.20;99.90;;;;;;4929108;29;20409;-74
2022/01/10 14:26:49;;;;;;;13.98;5.90;;;9.20;99.90;;;;;;4917629;29;20067;-74
2022/01/10 14:29:15;;;;;;;10.75;5.03;;;9.20;99.90;;;;;;4934366;29;20032;-75
2022/01/10 14:31:41;;;;;;;12.77;6.00;;;9.10;99.90;;;;;;4919365;29;20446;-75
2022/01/10 14:34:07;;;;;;;9.50;5.38;;;9.10;99.90;;;;;;4915799;29;20047;-74
2022/01/10 14:36:33;;;;;;;10.07;5.45;;;9.10;99.90;;;;;;4926025;29;20102;-76
2022/01/10 14:38:59;;;;;;;8.40;5.18;;;9.00;99.90;;;;;;4929838;29;20031;-75
2022/01/10 14:41:26;;;;;;;12.00;5.85;;;8.90;99.90;;;;;;4933577;29;20026;-75
2022/01/10 14:43:52;;;;;;;11.65;6.28;;;8.80;99.90;;;;;;4934166;29;20055;-75
2022/01/10 14:46:19;;;;;;;10.23;6.10;;;8.80;99.90;;;;;;4923728;29;20024;-75
2022/01/10 14:48:45;;;;;;;10.35;6.47;;;8.70;99.90;;;;;;4922699;29;20031;-74
2022/01/10 14:51:11;;;;;;;12.88;6.25;;;8.70;99.90;;;;;;4923320;29;20032;-74
2022/01/10 14:53:41;;;;;;;16.20;7.03;;;8.60;99.90;;;;;;4907493;29;20040;-74
2022/01/10 14:56:09;;;;;;;15.98;7.05;;;8.60;99.90;;;;;;4926864;29;20020;-75
2022/01/10 14:58:36;;;;;;;21.60;6.30;;;8.60;99.90;;;;;;4904315;29;20429;-77
2022/01/10 15:01:02;;;;;;;10.98;6.72;;;8.50;99.90;;;;;;4932004;29;20032;-79
2022/01/10 15:03:28;;;;;;;10.93;6.38;;;8.50;99.90;;;;;;4931417;29;20039;-79
2022/01/10 15:05:55;;;;;;;16.40;7.25;;;8.50;99.90;;;;;;4934893;29;20536;-76
2022/01/10 15:08:23;;;;;;;12.27;7.20;;;8.40;99.90;;;;;;4937706;29;20086;-75
2022/01/10 15:10:50;;;;;;;11.98;6.93;;;8.40;99.90;;;;;;4937968;29;20465;-75
2022/01/10 15:13:16;;;;;;;13.38;7.18;;;8.30;99.90;;;;;;4936981;29;20036;-77
2022/01/10 15:15:43;;;;;;;14.52;7.40;;;8.30;99.90;;;;;;4937386;29;20075;-75
2022/01/10 15:18:10;;;;;;;10.57;6.43;;;8.30;99.90;;;;;;4937884;29;20035;-75
2022/01/10 15:20:36;;;;;;;11.00;6.78;;;8.20;99.90;;;;;;4928034;29;20502;-75
2022/01/10 15:23:02;;;;;;;13.82;7.22;;;8.20;99.90;;;;;;4921129;29;20035;-77
2022/01/10 15:25:29;;;;;;;27.30;7.95;;;8.20;99.90;;;;;;4945491;29;20063;-75
2022/01/10 15:27:56;;;;;;;12.05;7.00;;;8.20;99.90;;;;;;4936826;29;20027;-75
2022/01/10 15:30:24;;;;;;;18.05;9.50;;;8.10;99.90;;;;;;4932864;29;20412;-77
2022/01/10 15:32:50;;;;;;;16.92;8.52;;;8.10;99.90;;;;;;4922279;29;20044;-75
2022/01/10 15:35:16;;;;;;;14.45;8.43;;;8.10;99.90;;;;;;4917506;29;20016;-75
2022/01/10 15:37:42;;;;;;;14.52;8.18;;;8.10;99.90;;;;;;4902043;29;20516;-75
2022/01/10 15:40:09;;;;;;;13.68;8.32;;;8.00;99.90;;;;;;4918358;29;20028;-75
2022/01/10 15:42:37;;;;;;;14.68;7.00;;;8.00;99.90;;;;;;4920409;29;20035;-77
2022/01/10 15:45:05;;;;;;;14.30;7.95;;;7.90;99.90;;;;;;4917386;29;20013;-75
2022/01/10 15:47:31;;;;;;;15.75;8.85;;;7.90;99.90;;;;;;4918189;29;20052;-76
2022/01/10 15:49:57;;;;;;;18.35;8.27;;;7.90;99.90;;;;;;4917463;29;20142;-76
2022/01/10 15:52:25;;;;;;;12.95;8.02;;;7.80;99.90;;;;;;4919377;29;20044;-76
2022/01/10 15:54:50;;;;;;;17.48;9.05;;;7.80;99.90;;;;;;4918298;29;20024;-74
2022/01/10 15:57:16;;;;;;;16.30;9.27;;;7.80;99.90;;;;;;4920417;29;20027;-76
2022/01/10 15:59:42;;;;;;;18.50;8.25;;;7.70;99.90;;;;;;4917655;29;20034;-75
2022/01/10 16:02:10;;;;;;;21.63;9.95;;;7.70;99.90;;;;;;4917224;29;20032;-75
2022/01/10 16:04:36;;;;;;;15.00;8.38;;;7.70;99.90;;;;;;4918283;29;20027;-76
2022/01/10 16:07:03;;;;;;;13.13;8.45;;;7.70;99.90;;;;;;4918206;29;20473;-75
2022/01/10 16:09:29;;;;;;;13.10;8.30;;;7.70;99.90;;;;;;4921994;29;20047;-74
2022/01/10 16:11:57;;;;;;;14.27;8.77;;;7.60;99.90;;;;;;4917899;29;20493;-76
2022/01/10 16:14:23;;;;;;;19.20;9.15;;;7.60;99.90;;;;;;4901353;29;20389;-75
2022/01/10 16:16:48;;;;;;;17.17;8.57;;;7.60;99.90;;;;;;4919989;29;20103;-75
2022/01/10 16:19:15;;;;;;;11.93;7.45;;;7.60;99.90;;;;;;4917763;29;20028;-74
2022/01/10 16:21:41;;;;;;;18.48;9.15;;;7.60;99.90;;;;;;4916874;29;20027;-75
2022/01/10 16:24:07;;;;;;;17.58;8.75;;;7.60;99.90;;;;;;4916827;29;20438;-75
2022/01/10 16:26:33;;;;;;;17.98;8.77;;;7.60;99.90;;;;;;4916841;29;20032;-75
2022/01/10 16:28:58;;;;;;;17.23;8.80;;;7.60;99.90;;;;;;4917781;29;20051;-73
2022/01/10 16:31:24;;;;;;;21.52;9.43;;;7.50;99.90;;;;;;4917886;29;20521;-73
2022/01/10 16:33:53;;;;;;;13.85;8.68;;;7.50;99.90;;;;;;4918672;29;20067;-73
2022/01/10 16:36:18;;;;;;;15.32;9.00;;;7.50;99.90;;;;;;4917881;29;20114;-73
2022/01/10 16:38:45;;;;;;;18.98;9.02;;;7.50;99.90;;;;;;4899770;29;20163;-74
2022/01/10 16:41:15;;;;;;;19.42;9.80;;;7.50;99.90;;;;;;4916051;29;20020;-74
2022/01/10 16:43:41;;;;;;;17.23;9.35;;;7.50;99.90;;;;;;4917014;29;20589;-73
2022/01/10 16:46:07;;;;;;;20.10;9.55;;;7.50;99.90;;;;;;4936701;29;20051;-74
2022/01/10 16:48:34;;;;;;;15.70;8.80;;;7.40;99.90;;;;;;4936842;29;20024;-75
2022/01/10 16:51:00;;;;;;;14.07;8.32;;;7.40;99.90;;;;;;4936774;29;20477;-74
2022/01/10 16:53:26;;;;;;;16.58;8.90;;;7.50;99.90;;;;;;4936794;29;20095;-75
2022/01/10 16:55:52;;;;;;;15.23;8.18;;;7.40;99.90;;;;;;4936856;29;20087;-75
2022/01/10 16:58:18;;;;;;;20.98;9.25;;;7.40;99.90;;;;;;4936591;29;20498;-74
2022/01/10 17:00:44;;;;;;;22.60;8.27;;;7.40;99.90;;;;;;4936797;29;20032;-75
2022/01/10 17:03:10;;;;;;;14.95;9.07;;;7.40;99.90;;;;;;4936573;29;20028;-74
2022/01/10 17:05:38;;;;;;;14.73;9.82;;;7.40;99.90;;;;;;4925254;29;20028;-74
2022/01/10 17:08:06;;;;;;;19.13;10.00;;;7.40;99.90;;;;;;4916532;29;20029;-73
2022/01/10 17:10:33;;;;;;;18.67;9.52;;;7.30;99.90;;;;;;4916359;29;20056;-75
2022/01/10 17:12:59;;;;;;;17.40;9.02;;;7.30;99.90;;;;;;4916628;29;20717;-75
2022/01/10 17:15:26;;;;;;;14.85;8.98;;;7.30;99.90;;;;;;4916381;29;20117;-75
2022/01/10 17:17:53;;;;;;;18.98;10.18;;;7.30;99.90;;;;;;4916952;29;20055;-73
2022/01/10 17:20:19;;;;;;;17.48;9.50;;;7.40;99.90;;;;;;4917144;29;20024;-74
2022/01/10 17:22:44;;;;;;;15.55;9.80;;;7.30;99.90;;;;;;4916510;29;20028;-74
2022/01/10 17:25:13;;;;;;;12.40;8.05;;;7.30;99.90;;;;;;4920915;29;20036;-75
2022/01/10 17:27:40;;;;;;;17.83;8.43;;;7.40;99.90;;;;;;4946319;29;20028;-75
2022/01/10 17:30:08;;;;;;;15.27;8.95;;;7.30;99.90;;;;;;4934885;29;20028;-75
2022/01/10 17:32:33;;;;;;;15.02;9.05;;;7.30;99.90;;;;;;4929457;29;20051;-75
2022/01/10 17:34:59;;;;;;;18.17;9.18;;;7.40;99.90;;;;;;4899494;29;20024;-75
2022/01/10 17:37:25;;;;;;;19.15;9.00;;;7.40;99.90;;;;;;4899052;29;20033;-75
2022/01/10 17:39:53;;;;;;;13.65;9.20;;;7.40;99.90;;;;;;4915545;29;20024;-75
2022/01/10 17:42:19;;;;;;;17.73;10.32;;;7.50;99.90;;;;;;4916604;29;20088;-76
2022/01/10 17:44:45;;;;;;;14.45;9.73;;;7.40;99.90;;;;;;4916799;29;20019;-73
2022/01/10 17:47:11;;;;;;;16.67;9.45;;;7.40;99.90;;;;;;4934996;29;20036;-75
2022/01/10 17:49:41;;;;;;;18.20;9.27;;;7.40;99.90;;;;;;4935105;29;20060;-78
2022/01/10 17:52:13;;;;;;;14.02;8.93;;;7.40;99.90;;;;;;4935157;29;20071;-76
2022/01/10 17:54:40;;;;;;;21.60;11.27;;;7.40;99.90;;;;;;4935025;29;20020;-79
2022/01/10 17:57:07;;;;;;;14.77;8.02;;;7.40;99.90;;;;;;4934928;29;20071;-79
2022/01/10 17:59:34;;;;;;;14.27;9.25;;;7.40;99.90;;;;;;4924403;29;20024;-80
2022/01/10 18:02:00;;;;;;;13.77;7.97;;;7.40;99.90;;;;;;4920766;29;20076;-81
2022/01/10 18:04:28;;;;;;;14.80;8.93;;;7.40;99.90;;;;;;4916020;29;20032;-75
2022/01/10 18:06:53;;;;;;;14.93;9.05;;;7.40;99.90;;;;;;4946024;29;20027;-76
2022/01/10 18:09:20;;;;;;;18.17;7.70;;;7.40;99.90;;;;;;4953502;29;20395;-75
2022/01/10 18:11:45;;;;;;;15.77;8.80;;;7.40;99.90;;;;;;4953542;29;20408;-76
2022/01/10 18:14:11;;;;;;;14.98;8.23;;;7.40;99.90;;;;;;4922960;29;20043;-77
2022/01/10 18:16:37;;;;;;;15.02;8.60;;;7.40;99.90;;;;;;4915860;29;20036;-75
2022/01/10 18:19:03;;;;;;;17.70;8.80;;;7.40;99.90;;;;;;4915442;29;20059;-75
2022/01/10 18:21:29;;;;;;;11.57;7.45;;;7.40;99.90;;;;;;4917219;29;20024;-75
2022/01/10 18:23:55;;;;;;;16.88;8.23;;;7.40;99.90;;;;;;4915588;29;20381;-76
2022/01/10 18:26:21;;;;;;;11.32;7.93;;;7.40;99.90;;;;;;4902143;29;20036;-74
2022/01/10 18:28:47;;;;;;;11.13;7.90;;;7.40;99.90;;;;;;4914709;29;20017;-75
2022/01/10 18:31:12;;;;;;;13.88;7.85;;;7.50;99.90;;;;;;4915310;29;20075;-75
2022/01/10 18:33:38;;;;;;;13.55;7.72;;;7.50;99.90;;;;;;4915313;29;20039;-74
2022/01/10 18:36:05;;;;;;;18.65;8.35;;;7.50;99.90;;;;;;4915692;29;20478;-74
2022/01/10 18:38:31;;;;;;;12.30;7.82;;;7.50;99.90;;;;;;4915447;29;20031;-75
2022/01/10 18:40:58;;;;;;;16.25;7.93;;;7.50;99.90;;;;;;4915477;29;20397;-75
2022/01/10 18:43:24;;;;;;;13.45;8.15;;;7.50;99.90;;;;;;4915505;29;20032;-75
2022/01/10 18:45:54;;;;;;;11.85;6.93;;;7.50;99.90;;;;;;4918201;29;20035;-75
2022/01/10 18:48:20;;;;;;;21.48;8.98;;;7.50;99.90;;;;;;4927311;29;20036;-76
2022/01/10 18:50:47;;;;;;;24.35;8.10;;;7.40;99.90;;;;;;4920309;29;20020;-74
2022/01/10 18:53:13;;;;;;;16.48;8.10;;;7.40;99.90;;;;;;4934574;29;20405;-75
2022/01/10 18:55:41;;;;;;;11.68;8.00;;;7.40;99.90;;;;;;4934009;29;20034;-76
2022/01/10 18:58:08;;;;;;;12.48;8.05;;;7.40;99.90;;;;;;4925627;29;20024;-76
2022/01/10 19:00:34;;;;;;;14.48;7.47;;;7.40;99.90;;;;;;4914970;29;20047;-76
2022/01/10 19:03:01;;;;;;;12.75;8.02;;;7.40;99.90;;;;;;4915218;29;20414;-75
2022/01/10 19:05:27;;;;;;;12.38;8.32;;;7.50;99.90;;;;;;4915002;29;20099;-76
2022/01/10 19:07:56;;;;;;;12.50;8.65;;;7.40;99.90;;;;;;4917215;29;20107;-76
2022/01/10 19:10:22;;;;;;;13.63;7.25;;;7.40;99.90;;;;;;4919177;29;20016;-77
2022/01/10 19:12:49;;;;;;;13.48;8.30;;;7.40;99.90;;;;;;4906156;29;20091;-77
2022/01/10 19:15:16;;;;;;;18.60;11.02;;;7.40;99.90;;;;;;4915060;29;20043;-76
2022/01/10 19:17:42;;;;;;;16.63;8.30;;;7.30;99.90;;;;;;4914666;29;20023;-77
2022/01/10 19:20:08;;;;;;;17.73;8.27;;;7.30;99.90;;;;;;4917173;29;20091;-77
2022/01/10 19:22:35;;;;;;;12.70;7.55;;;7.40;99.90;;;;;;4914556;29;20023;-77
2022/01/10 19:25:01;;;;;;;15.27;8.32;;;7.40;99.90;;;;;;4914390;29;20079;-77
2022/01/10 19:27:27;;;;;;;16.60;8.82;;;7.40;99.90;;;;;;4914643;29;20028;-77
2022/01/10 19:29:53;;;;;;;18.50;8.13;;;7.40;99.90;;;;;;4923198;29;20046;-77
2022/01/10 19:32:19;;;;;;;16.52;9.48;;;7.30;99.90;;;;;;4916092;29;20044;-75
2022/01/10 19:34:44;;;;;;;13.93;8.68;;;7.30;99.90;;;;;;4914632;29;20107;-76
2022/01/10 19:37:10;;;;;;;14.23;8.38;;;7.20;99.90;;;;;;4898931;29;20028;-76
2022/01/10 19:39:36;;;;;;;15.07;8.98;;;7.20;99.90;;;;;;4917192;29;20032;-75
2022/01/10 19:42:03;;;;;;;14.18;8.93;;;7.20;99.90;;;;;;4917899;29;20047;-74
2022/01/10 19:44:29;;;;;;;12.38;8.45;;;7.20;99.90;;;;;;4919777;29;20025;-78
2022/01/10 19:46:55;;;;;;;12.75;8.18;;;7.20;99.90;;;;;;4917004;29;20048;-76
2022/01/10 19:49:20;;;;;;;13.75;8.68;;;7.10;99.90;;;;;;4919874;29;20078;-77
2022/01/10 19:51:46;;;;;;;17.25;8.73;;;7.10;99.90;;;;;;4917981;29;20028;-75
2022/01/10 19:54:16;;;;;;;11.73;7.60;;;7.10;99.90;;;;;;4917502;29;20028;-75
2022/01/10 19:56:46;;;;;;;12.52;7.85;;;7.20;99.90;;;;;;4916872;29;20020;-74
2022/01/10 19:59:12;;;;;;;12.43;8.38;;;7.20;99.90;;;;;;4917771;29;20040;-74
2022/01/10 20:01:39;;;;;;;13.48;8.15;;;7.20;99.90;;;;;;4918043;29;20035;-73
2022/01/10 20:04:05;;;;;;;12.50;8.52;;;7.10;99.90;;;;;;4901004;29;20052;-74
2022/01/10 20:06:31;;;;;;;12.30;7.57;;;7.10;99.90;;;;;;4917660;29;20499;-74
2022/01/10 20:08:57;;;;;;;13.02;8.07;;;7.10;99.90;;;;;;4917919;29;20032;-74
2022/01/10 20:11:23;;;;;;;14.65;7.78;;;7.10;99.90;;;;;;4918130;29;20516;-74
2022/01/10 20:13:48;;;;;;;13.98;7.60;;;7.10;99.90;;;;;;4900860;29;20493;-74
2022/01/10 20:16:16;;;;;;;10.30;6.53;;;7.10;99.90;;;;;;4917186;29;20103;-75
2022/01/10 20:18:42;;;;;;;10.95;6.97;;;7.10;99.90;;;;;;4917674;29;20129;-77
2022/01/10 20:21:10;;;;;;;10.00;7.07;;;7.10;99.90;;;;;;4930278;29;20024;-76
2022/01/10 20:23:36;;;;;;;12.82;7.15;;;7.10;99.90;;;;;;4917312;29;20036;-78
2022/01/10 20:26:03;;;;;;;12.50;7.70;;;7.10;99.90;;;;;;4917259;29;20417;-77
2022/01/10 20:28:29;;;;;;;13.80;8.05;;;7.10;99.90;;;;;;4917707;29;20024;-76
2022/01/10 20:30:56;;;;;;;10.57;6.63;;;7.10;99.90;;;;;;4917408;29;20103;-77
2022/01/10 20:33:22;;;;;;;10.18;6.95;;;7.10;99.90;;;;;;4925346;29;20091;-77
2022/01/10 20:35:48;;;;;;;8.25;6.03;;;7.10;99.90;;;;;;4917343;29;20024;-77
2022/01/10 20:38:14;;;;;;;12.80;6.20;;;7.20;99.90;;;;;;4899710;29;20461;-77
2022/01/10 20:40:39;;;;;;;11.32;7.10;;;7.20;99.90;;;;;;4916625;29;20020;-75
2022/01/10 20:43:06;;;;;;;12.10;7.32;;;7.20;99.90;;;;;;4916330;29;20031;-76
2022/01/10 20:45:33;;;;;;;13.68;7.70;;;7.20;99.90;;;;;;4916547;29;20052;-77
2022/01/10 20:47:59;;;;;;;11.98;7.63;;;7.20;99.90;;;;;;4917598;29;20082;-75
2022/01/10 20:50:25;;;;;;;13.02;7.10;;;7.20;99.90;;;;;;4919444;29;20028;-76
2022/01/10 20:52:52;;;;;;;11.73;7.70;;;7.10;99.90;;;;;;4924382;29;20474;-78
2022/01/10 20:55:19;;;;;;;12.00;7.55;;;7.10;99.90;;;;;;4918501;29;20557;-76
2022/01/10 20:57:45;;;;;;;10.98;7.53;;;7.10;99.90;;;;;;4921442;29;20024;-77
2022/01/10 21:00:11;;;;;;;10.57;7.25;;;7.20;99.90;;;;;;4922930;29;20457;-76
2022/01/10 21:02:37;;;;;;;11.93;7.40;;;7.10;99.90;;;;;;4917745;29;20104;-76
2022/01/10 21:05:04;;;;;;;12.88;7.35;;;7.10;99.90;;;;;;4918892;29;20035;-77
2022/01/10 21:07:30;;;;;;;11.18;7.35;;;7.10;99.90;;;;;;4916255;29;20028;-76
2022/01/10 21:09:56;;;;;;;10.70;7.00;;;7.10;99.90;;;;;;4918927;29;20032;-76
2022/01/10 21:12:22;;;;;;;11.32;6.78;;;7.10;99.90;;;;;;4926483;29;21157;-75
2022/01/10 21:14:48;;;;;;;9.77;5.97;;;7.10;99.90;;;;;;4918654;29;20536;-77
2022/01/10 21:17:17;;;;;;;12.50;7.35;;;7.00;99.90;;;;;;4918731;29;20112;-76
2022/01/10 21:19:43;;;;;;;10.57;7.03;;;7.00;99.90;;;;;;4916100;29;20091;-76
2022/01/10 21:22:09;;;;;;;9.82;6.47;;;7.00;99.90;;;;;;4915939;29;20470;-76
2022/01/10 21:24:35;;;;;;;10.20;6.70;;;7.00;99.90;;;;;;4917391;29;20047;-77
2022/01/10 21:27:02;;;;;;;13.93;8.05;;;7.00;99.90;;;;;;4915950;29;20024;-76
2022/01/10 21:29:28;;;;;;;10.63;6.53;;;6.90;99.90;;;;;;4916581;29;20110;-75
2022/01/10 21:31:53;;;;;;;11.85;7.18;;;7.00;99.90;;;;;;4904211;29;20054;-77
2022/01/10 21:34:19;;;;;;;9.95;6.95;;;7.00;99.90;;;;;;4920725;29;20027;-77
2022/01/10 21:36:46;;;;;;;8.50;5.78;;;7.00;99.90;;;;;;4922412;29;20076;-77
2022/01/10 21:39:12;;;;;;;11.57;6.45;;;6.90;99.90;;;;;;4916136;29;20111;-78
2022/01/10 21:41:39;;;;;;;10.00;6.57;;;6.90;99.90;;;;;;4916462;29;20028;-76
2022/01/10 21:44:09;;;;;;;12.15;6.50;;;6.90;99.90;;;;;;4916128;29;20075;-76
2022/01/10 21:46:35;;;;;;;10.27;6.63;;;6.90;99.90;;;;;;4916133;29;20036;-76
2022/01/10 21:49:03;;;;;;;13.73;6.28;;;6.90;99.90;;;;;;4916558;29;20028;-77
2022/01/10 21:51:31;;;;;;;11.75;6.28;;;6.90;99.90;;;;;;4917123;29;20164;-75
2022/01/10 21:53:57;;;;;;;9.10;6.43;;;6.90;99.90;;;;;;4925939;29;20404;-74
2022/01/10 21:56:25;;;;;;;9.80;6.32;;;6.90;99.90;;;;;;4899259;29;20432;-74
2022/01/10 21:58:52;;;;;;;10.23;6.40;;;6.90;99.90;;;;;;4932446;29;20039;-74
2022/01/10 22:01:18;;;;;;;12.20;6.53;;;6.80;99.90;;;;;;4916874;29;20024;-74
2022/01/10 22:03:43;;;;;;;7.78;5.45;;;6.80;99.90;;;;;;4916703;29;20099;-73
2022/01/10 22:06:10;;;;;;;19.13;5.88;;;6.80;99.90;;;;;;4916746;29;20470;-74
2022/01/10 22:08:35;;;;;;;10.00;6.05;;;6.80;99.90;;;;;;4916727;29;20032;-74
2022/01/10 22:11:02;;;;;;;10.23;5.97;;;6.80;99.90;;;;;;4916791;29;20032;-73
2022/01/10 22:13:29;;;;;;;10.05;5.75;;;6.80;99.90;;;;;;4918576;29;20127;-73
2022/01/10 22:15:57;;;;;;;11.40;7.05;;;6.70;99.90;;;;;;4932504;29;20103;-74
2022/01/10 22:18:26;;;;;;;9.43;5.45;;;6.80;99.90;;;;;;4930059;29;20069;-74
2022/01/10 22:20:58;;;;;;;10.05;6.28;;;6.80;99.90;;;;;;4935590;29;20392;-74
2022/01/10 22:23:25;;;;;;;10.85;5.80;;;6.80;99.90;;;;;;4919350;29;20044;-74
2022/01/10 22:25:52;;;;;;;9.38;5.38;;;6.80;99.90;;;;;;4916391;29;20047;-73
2022/01/10 22:28:18;;;;;;;9.15;5.78;;;6.80;99.90;;;;;;4898738;29;20123;-73
2022/01/10 22:30:44;;;;;;;9.30;6.10;;;6.80;99.90;;;;;;4918691;29;20115;-74
2022/01/10 22:33:09;;;;;;;12.10;5.80;;;6.80;99.90;;;;;;4916381;29;20457;-74
2022/01/10 22:35:36;;;;;;;9.68;5.50;;;6.80;99.90;;;;;;4925392;29;20032;-74
2022/01/10 22:38:02;;;;;;;9.90;5.75;;;6.80;99.90;;;;;;4924493;29;20071;-74
2022/01/10 22:40:28;;;;;;;10.20;5.82;;;6.80;99.90;;;;;;4929422;29;20063;-74
2022/01/10 22:42:54;;;;;;;10.75;5.80;;;6.80;99.90;;;;;;4934967;29;20436;-74
2022/01/10 22:45:20;;;;;;;9.55;5.78;;;6.80;99.90;;;;;;4917762;29;20028;-74
2022/01/10 22:47:46;;;;;;;6.55;4.90;;;6.80;99.90;;;;;;4918002;29;20059;-74
2022/01/10 22:50:12;;;;;;;8.45;5.50;;;6.80;99.90;;;;;;4916256;29;20027;-74
2022/01/10 22:52:39;;;;;;;5.85;4.57;;;6.80;99.90;;;;;;4916256;29;20115;-74
2022/01/10 22:55:06;;;;;;;8.18;5.32;;;6.80;99.90;;;;;;4920744;29;20479;-74
2022/01/10 22:57:32;;;;;;;9.13;5.93;;;6.90;99.90;;;;;;4917623;29;20065;-74
2022/01/10 22:59:58;;;;;;;9.15;5.72;;;6.90;99.90;;;;;;4925359;29;20070;-74
2022/01/10 23:02:23;;;;;;;9.77;5.25;;;6.80;99.90;;;;;;4919458;29;20425;-74
2022/01/10 23:04:49;;;;;;;6.80;5.32;;;6.80;99.90;;;;;;4915455;29;20028;-73
2022/01/10 23:07:16;;;;;;;7.78;5.68;;;6.80;99.90;;;;;;4915362;29;20024;-75
2022/01/10 23:09:42;;;;;;;11.35;6.22;;;6.80;99.90;;;;;;4915274;29;20028;-74
2022/01/10 23:12:08;;;;;;;7.72;5.38;;;6.80;99.90;;;;;;4917461;29;20047;-74
2022/01/10 23:14:33;;;;;;;8.80;5.47;;;6.80;99.90;;;;;;4905605;29;20031;-74
2022/01/10 23:16:59;;;;;;;8.05;5.50;;;6.80;99.90;;;;;;4920279;29;20034;-74
2022/01/10 23:19:27;;;;;;;8.43;6.05;;;6.80;99.90;;;;;;4931110;29;20496;-74
2022/01/10 23:21:53;;;;;;;9.23;5.85;;;6.80;99.90;;;;;;4919529;29;20024;-74
2022/01/10 23:24:20;;;;;;;8.93;6.38;;;6.80;99.90;;;;;;4931728;29;20062;-74
2022/01/10 23:26:45;;;;;;;8.75;6.05;;;6.80;99.90;;;;;;4938376;29;20087;-74
2022/01/10 23:29:11;;;;;;;6.65;5.10;;;6.80;99.90;;;;;;4938422;29;20480;-74
2022/01/10 23:31:37;;;;;;;8.43;5.72;;;6.80;99.90;;;;;;4938125;29;20098;-74
2022/01/10 23:34:03;;;;;;;6.68;4.95;;;6.80;99.90;;;;;;4938195;29;20043;-74
2022/01/10 23:36:29;;;;;;;7.85;5.35;;;6.80;99.90;;;;;;4938085;29;20024;-73
2022/01/10 23:38:55;;;;;;;7.95;5.47;;;6.90;99.90;;;;;;4937966;29;20034;-74
2022/01/10 23:41:21;;;;;;;7.40;5.30;;;6.90;99.90;;;;;;4938085;29;20119;-73
2022/01/10 23:43:47;;;;;;;7.18;5.38;;;6.80;99.90;;;;;;4937815;29;20107;-73
2022/01/10 23:46:15;;;;;;;6.40;5.10;;;6.90;99.90;;;;;;4937671;29;20051;-74
2022/01/10 23:48:42;;;;;;;8.02;5.35;;;6.80;99.90;;;;;;4936807;29;20027;-74
2022/01/10 23:51:07;;;;;;;8.32;5.65;;;6.80;99.90;;;;;;4937448;29;20032;-74
2022/01/10 23:53:36;;;;;;;8.68;6.00;;;6.80;99.90;;;;;;4937799;29;20547;-74
2022/01/10 23:56:02;;;;;;;9.00;5.57;;;6.80;99.90;;;;;;4937545;29;20047;-74
2022/01/10 23:58:28;;;;;;;13.50;5.70;;;6.80;99.90;;;;;;4937705;29;20071;-74
